Domov               UVHVVR             MKGP            O straneh              
ZDRAVSTVENO VARSTVO RASTLIN
  MREŽA AGROMET. POSTAJ
 ► PROGNOSTIČNA OBVESTILA
AGROMETEOROLOŠKI PODATKI -
ARSO
OBVLADOVANJE TVEGANJ ZARADI
NEUGODNIH VREMENSKIH RAZMER
  ► NARAVNE NESREČE
  ► SUŠA/MOČA
  ► NAMAKANJE
  ► ŽLED (gozdarstvo)
KARTOGRAFSKI PRIKAZI
SPLETNE POVEZAVE
PROJEKTI IN PUBLIKACIJE

AGROMETEOROLOŠKA MREŽA: VREMENSKE POSTAJE IN FENOLOŠKA OPAZOVANJA

Pregled podatkov za lokacijo Senožeti, meteorološka postaja 37929

Pregled senzorjev na lokaciji

ID Ime Zadnja
vrednost
Datum
zadnje
spremembe
Tip
senzorja
1791 Omočenost lista (U) 10 U 19.8.2017 03:00 A730WET
1792 Temperatura 2 m ( °C) 14,07 °C 19.8.2017 03:00 50YA
1793 Relativna vlaga 2 m (% RH) 99,93 % RH 19.8.2017 03:00 50YA
1794 Padavine 0.2 mm (mm) 0 mm 19.8.2017 03:00 Rain-O-Matic

Pregled podatkov zadnjih 24 ur

Zap.
št.
Datum in čas Senožeti
Omočenost
lista
Padavine
0.2
mm
Relativna
vlaga
2
m
Temperatura
2
m
0 19.8.2017 02:00 10 0 99,93 14,07
1 19.8.2017 01:30 10 0 99,93 14,31
2 19.8.2017 01:00 10 0 99,93 14,55
3 19.8.2017 00:30 10 0 99,56 14,73
4 19.8.2017 00:00 10 0 99,32 15,21
5 18.8.2017 23:30 10 0 96,53 15,56
6 18.8.2017 23:00 8 0 95,24 16,12
7 18.8.2017 22:30 4 0 94,11 16,56
8 18.8.2017 22:00 2 0 92,26 16,95
9 18.8.2017 21:30 1 0 90,96 17,48
10 18.8.2017 21:00 1 0 89,33 18,14
11 18.8.2017 20:30 0 0 87,25 18,66
12 18.8.2017 20:00 0 0 84,44 19,29
13 18.8.2017 19:30 0 0 80,73 20,46
14 18.8.2017 19:00 0 0 74,77 22,17
15 18.8.2017 18:30 0 0 65,91 24,25
16 18.8.2017 18:00 0 0 55,12 26,96
17 18.8.2017 17:30 0 0 44,27 29,87
18 18.8.2017 17:00 0 0 36,92 32,7
19 18.8.2017 16:30 0 0 31,55 33,6
20 18.8.2017 16:00 0 0 30,94 34,43
21 18.8.2017 15:30 0 0 30,43 34,46
22 18.8.2017 15:00 0 0 30,38 34,7
23 18.8.2017 14:30 0 0 29,84 34,63
24 18.8.2017 14:00 0 0 30,65 34,29
25 18.8.2017 13:30 0 0 33,28 33,5
26 18.8.2017 13:00 0 0 35,04 32,89
27 18.8.2017 12:30 0 0 34,19 32,87
28 18.8.2017 12:00 0 0 34,63 32,72
29 18.8.2017 11:30 0 0 40,27 32,19
30 18.8.2017 11:00 0 0 42,93 31,5
31 18.8.2017 10:30 0 0 49,26 29,74
32 18.8.2017 10:00 0 0 51,62 28,67
33 18.8.2017 09:30 0 0 56,51 27,2
34 18.8.2017 09:00 0 0 60,32 26,4
35 18.8.2017 08:30 8 0 67,35 23,98
36 18.8.2017 08:00 10 0 75,65 21,12
37 18.8.2017 07:30 10 0 83,54 19,29
38 18.8.2017 07:00 10 0 93,02 17,73
39 18.8.2017 06:30 10 0 99,93 16,29
40 18.8.2017 06:00 10 0 99,93 14,58
41 18.8.2017 05:30 10 0 99,93 13,55
42 18.8.2017 05:00 10 0 99,93 13,46
43 18.8.2017 04:30 10 0 99,93 13,53
44 18.8.2017 04:00 10 0 99,93 13,7
© 2011 Ministrstvo za kmetijstvo, gozdarstvo in prehrano. Vse pravice pridržane.